createdAt,value
2017-08-09T00:02:16.642Z,17.50
2017-08-09T00:04:42.697Z,17.50
2017-08-09T00:07:09.574Z,17.50
2017-08-09T00:09:35.666Z,17.40
2017-08-09T00:12:02.506Z,17.30
2017-08-09T00:14:29.295Z,17.30
2017-08-09T00:16:55.362Z,17.20
2017-08-09T00:19:22.155Z,17.10
2017-08-09T00:21:48.212Z,17.10
2017-08-09T00:24:14.287Z,17.10
2017-08-09T00:26:40.338Z,17.00
2017-08-09T00:29:06.418Z,17.00
2017-08-09T00:31:32.480Z,16.90
2017-08-09T00:33:58.566Z,16.90
2017-08-09T00:36:24.614Z,16.90
2017-08-09T00:38:50.694Z,16.80
2017-08-09T00:41:16.838Z,16.80
2017-08-09T00:43:43.666Z,16.70
2017-08-09T00:46:09.715Z,16.70
2017-08-09T00:48:35.862Z,16.70
2017-08-09T00:51:01.929Z,16.60
2017-08-09T00:53:27.984Z,16.60
2017-08-09T00:55:54.051Z,16.60
2017-08-09T00:58:20.098Z,16.50
2017-08-09T01:00:46.172Z,16.50
2017-08-09T01:03:12.274Z,16.40
2017-08-09T01:05:39.083Z,16.30
2017-08-09T01:08:05.135Z,16.30
2017-08-09T01:10:31.988Z,16.30
2017-08-09T01:12:58.786Z,16.20
2017-08-09T01:15:24.851Z,16.20
2017-08-09T01:17:51.650Z,16.20
2017-08-09T01:20:17.730Z,16.10
2017-08-09T01:22:43.803Z,16.20
2017-08-09T01:25:09.870Z,16.20
2017-08-09T01:27:36.659Z,16.10
2017-08-09T01:30:02.730Z,16.10
2017-08-09T01:32:29.534Z,16.20
2017-08-09T01:34:55.620Z,16.20
2017-08-09T01:37:21.672Z,16.20
2017-08-09T01:39:47.896Z,16.10
2017-08-09T01:42:13.943Z,16.20
2017-08-09T01:44:40.026Z,16.00
2017-08-09T01:47:06.086Z,16.00
2017-08-09T01:49:32.154Z,15.90
2017-08-09T01:51:58.998Z,15.90
2017-08-09T01:54:25.089Z,15.80
2017-08-09T01:56:51.167Z,15.80
2017-08-09T01:59:17.254Z,15.70
2017-08-09T02:01:44.046Z,15.60
2017-08-09T02:04:10.210Z,15.60
2017-08-09T02:06:36.274Z,15.60
2017-08-09T02:09:02.340Z,15.60
2017-08-09T02:11:28.432Z,15.60
2017-08-09T02:13:54.475Z,15.50
2017-08-09T02:16:20.547Z,15.50
2017-08-09T02:18:47.394Z,15.50
2017-08-09T02:21:14.210Z,15.50
2017-08-09T02:23:40.275Z,15.50
2017-08-09T02:26:06.358Z,15.50
2017-08-09T02:28:32.439Z,15.50
2017-08-09T02:30:58.499Z,15.40
2017-08-09T02:33:24.554Z,15.50
2017-08-09T02:35:51.355Z,15.40
2017-08-09T02:38:17.442Z,15.40
2017-08-09T02:40:43.514Z,15.40
2017-08-09T02:43:09.564Z,15.40
2017-08-09T02:45:35.611Z,15.40
2017-08-09T02:48:01.682Z,15.40
2017-08-09T02:50:27.730Z,15.40
2017-08-09T02:52:53.951Z,15.40
2017-08-09T02:55:20.007Z,15.30
2017-08-09T02:57:46.070Z,15.30
2017-08-09T03:00:12.131Z,15.30
2017-08-09T03:02:38.204Z,15.20
2017-08-09T03:05:04.263Z,15.20
2017-08-09T03:07:30.359Z,15.20
2017-08-09T03:09:56.427Z,15.10
2017-08-09T03:12:22.502Z,15.10
2017-08-09T03:14:48.578Z,15.00
2017-08-09T03:17:14.630Z,15.00
2017-08-09T03:19:40.702Z,14.90
2017-08-09T03:22:06.767Z,14.90
2017-08-09T03:24:33.578Z,14.70
2017-08-09T03:26:59.689Z,14.70
2017-08-09T03:29:25.810Z,14.70
2017-08-09T03:31:51.867Z,14.60
2017-08-09T03:34:17.979Z,14.60
2017-08-09T03:36:44.043Z,14.50
2017-08-09T03:39:10.111Z,14.50
2017-08-09T03:41:36.178Z,14.40
2017-08-09T03:44:02.240Z,14.30
2017-08-09T03:46:28.321Z,14.30
2017-08-09T03:48:54.366Z,14.20
2017-08-09T03:51:20.448Z,14.20
2017-08-09T03:53:46.506Z,14.10
2017-08-09T03:56:12.610Z,14.10
2017-08-09T03:58:38.679Z,14.00
2017-08-09T04:01:04.842Z,14.00
2017-08-09T04:03:30.931Z,14.00
2017-08-09T04:05:57.009Z,14.00
2017-08-09T04:08:23.169Z,14.00
2017-08-09T04:10:49.272Z,14.00
2017-08-09T04:13:16.121Z,13.90
2017-08-09T04:15:42.927Z,13.80
2017-08-09T04:18:09.009Z,13.80
2017-08-09T04:20:35.066Z,13.90
2017-08-09T04:23:01.158Z,13.90
2017-08-09T04:25:27.210Z,13.90
2017-08-09T04:27:53.289Z,13.90
2017-08-09T04:30:20.114Z,13.90
2017-08-09T04:32:46.171Z,13.90
2017-08-09T04:35:12.550Z,13.90
2017-08-09T04:37:38.608Z,13.90
2017-08-09T04:40:04.689Z,14.00
2017-08-09T04:42:30.759Z,13.90
2017-08-09T04:44:57.570Z,13.90
2017-08-09T04:47:23.654Z,13.90
2017-08-09T04:49:49.755Z,14.00
2017-08-09T04:52:16.571Z,14.00
2017-08-09T04:54:42.654Z,14.00
2017-08-09T04:57:08.718Z,13.90
2017-08-09T04:59:34.798Z,14.00
2017-08-09T05:02:00.855Z,14.00
2017-08-09T05:04:27.006Z,14.00
2017-08-09T05:06:53.120Z,14.00
2017-08-09T05:09:19.231Z,14.00
2017-08-09T05:11:45.341Z,14.10
2017-08-09T05:14:11.394Z,14.10
2017-08-09T05:16:37.481Z,14.20
2017-08-09T05:19:03.543Z,14.30
2017-08-09T05:21:29.836Z,14.40
2017-08-09T05:23:56.716Z,14.60
2017-08-09T05:26:22.798Z,14.60
2017-08-09T05:28:48.857Z,14.60
2017-08-09T05:31:14.940Z,14.70
2017-08-09T05:33:40.997Z,14.80
2017-08-09T05:36:07.079Z,14.90
2017-08-09T05:38:33.133Z,15.00
2017-08-09T05:40:59.207Z,15.20
2017-08-09T05:43:25.258Z,15.20
2017-08-09T05:45:51.338Z,15.30
2017-08-09T05:48:17.382Z,15.50
2017-08-09T05:50:44.194Z,15.70
2017-08-09T05:53:10.261Z,15.70
2017-08-09T05:55:37.059Z,15.90
2017-08-09T05:58:03.127Z,15.90
2017-08-09T06:00:29.186Z,16.00
2017-08-09T06:02:55.254Z,16.20
2017-08-09T06:05:21.310Z,16.30
2017-08-09T06:07:47.588Z,16.40
2017-08-09T06:10:13.650Z,16.60
2017-08-09T06:12:40.472Z,16.70
2017-08-09T06:15:06.566Z,16.70
2017-08-09T06:17:32.663Z,16.90
2017-08-09T06:19:58.714Z,17.00
2017-08-09T06:22:24.786Z,17.00
2017-08-09T06:24:51.608Z,17.20
2017-08-09T06:27:17.670Z,17.10
2017-08-09T06:29:43.749Z,17.30
2017-08-09T06:32:09.817Z,17.40
2017-08-09T06:34:35.902Z,17.50
2017-08-09T06:37:01.959Z,17.70
2017-08-09T06:39:28.051Z,17.80
2017-08-09T06:41:54.114Z,17.80
2017-08-09T06:44:20.911Z,18.00
2017-08-09T06:46:46.963Z,18.00
2017-08-09T06:49:13.038Z,18.20
2017-08-09T06:51:39.079Z,18.20
2017-08-09T06:54:05.158Z,18.30
2017-08-09T06:56:31.222Z,18.40
2017-08-09T06:58:57.302Z,18.40
2017-08-09T07:01:23.450Z,18.50
2017-08-09T07:03:49.543Z,18.50
2017-08-09T07:06:16.351Z,18.60
2017-08-09T07:08:42.398Z,18.60
2017-08-09T07:11:08.494Z,18.80
2017-08-09T07:13:34.554Z,18.80
2017-08-09T07:16:01.379Z,18.90
2017-08-09T07:18:27.434Z,18.90
2017-08-09T07:20:54.248Z,18.90
2017-08-09T07:23:20.318Z,18.90
2017-08-09T07:25:46.393Z,19.00
2017-08-09T07:28:12.450Z,19.10
2017-08-09T07:30:39.272Z,19.20
2017-08-09T07:33:05.323Z,19.20
2017-08-09T07:35:31.442Z,19.50
2017-08-09T07:37:58.223Z,20.00
2017-08-09T07:40:24.295Z,20.00
2017-08-09T07:42:51.085Z,20.20
2017-08-09T07:45:17.167Z,20.20
2017-08-09T07:47:43.959Z,20.20
2017-08-09T07:50:10.022Z,20.20
2017-08-09T07:52:36.061Z,20.20
2017-08-09T07:55:02.886Z,20.00
2017-08-09T07:57:28.934Z,20.00
2017-08-09T07:59:54.999Z,19.90
2017-08-09T08:02:21.062Z,19.90
2017-08-09T08:04:47.914Z,20.00
2017-08-09T08:07:14.699Z,20.10
2017-08-09T08:09:40.784Z,20.10
2017-08-09T08:12:07.594Z,20.20
2017-08-09T08:14:33.647Z,20.20
2017-08-09T08:17:00.640Z,20.60
2017-08-09T08:19:26.694Z,20.60
2017-08-09T08:21:52.764Z,20.80
2017-08-09T08:24:18.846Z,21.00
2017-08-09T08:26:44.907Z,21.30
2017-08-09T08:29:10.950Z,21.60
2017-08-09T08:31:37.015Z,21.80
2017-08-09T08:34:03.079Z,21.90
2017-08-09T08:36:29.155Z,22.10
2017-08-09T08:38:55.205Z,22.30
2017-08-09T08:41:21.266Z,22.20
2017-08-09T08:43:47.330Z,22.30
2017-08-09T08:46:13.395Z,22.10
2017-08-09T08:48:39.487Z,21.90
2017-08-09T08:51:05.558Z,21.50
2017-08-09T08:53:31.613Z,21.40
2017-08-09T08:55:57.683Z,21.20
2017-08-09T08:58:24.470Z,20.80
2017-08-09T09:00:50.544Z,20.80
2017-08-09T09:03:17.343Z,20.50
2017-08-09T09:05:43.431Z,20.50
2017-08-09T09:08:09.479Z,20.30
2017-08-09T09:10:35.559Z,20.20
2017-08-09T09:13:02.364Z,20.20
2017-08-09T09:15:28.442Z,20.20
2017-08-09T09:17:54.487Z,20.40
2017-08-09T09:20:20.864Z,20.70
2017-08-09T09:22:46.932Z,21.20
2017-08-09T09:25:13.102Z,21.50
2017-08-09T09:27:39.160Z,21.60
2017-08-09T09:30:05.987Z,21.50
2017-08-09T09:32:32.038Z,21.50
2017-08-09T09:34:58.110Z,21.40
2017-08-09T09:37:24.270Z,21.30
2017-08-09T09:39:51.126Z,21.20
2017-08-09T09:42:17.219Z,21.20
2017-08-09T09:44:43.590Z,21.30
2017-08-09T09:47:09.747Z,21.40
2017-08-09T09:49:35.827Z,21.60
2017-08-09T09:52:02.627Z,22.40
2017-08-09T09:54:28.683Z,22.30
2017-08-09T09:56:54.755Z,22.70
2017-08-09T09:59:20.814Z,23.10
2017-08-09T10:01:46.874Z,23.00
2017-08-09T10:04:13.662Z,21.90
2017-08-09T10:06:39.727Z,21.90
2017-08-09T10:09:05.792Z,21.70
2017-08-09T10:11:31.899Z,21.60
2017-08-09T10:13:57.946Z,21.80
2017-08-09T10:16:24.023Z,21.90
2017-08-09T10:18:50.838Z,22.00
2017-08-09T10:21:16.910Z,22.00
2017-08-09T10:23:42.971Z,22.20
2017-08-09T10:26:09.059Z,22.60
2017-08-09T10:28:35.135Z,22.70
2017-08-09T10:31:01.207Z,22.80
2017-08-09T10:33:27.271Z,22.80
2017-08-09T10:35:53.329Z,22.80
2017-08-09T10:38:19.402Z,22.50
2017-08-09T10:40:45.478Z,22.40
2017-08-09T10:43:11.571Z,22.40
2017-08-09T10:45:37.639Z,22.30
2017-08-09T10:48:03.721Z,22.40
2017-08-09T10:50:29.939Z,22.60
2017-08-09T10:52:56.022Z,22.60
2017-08-09T10:55:22.818Z,22.60
2017-08-09T10:57:48.891Z,22.60
2017-08-09T11:00:15.694Z,22.60
2017-08-09T11:02:41.767Z,22.60
2017-08-09T11:05:07.897Z,22.60
2017-08-09T11:07:33.978Z,22.60
2017-08-09T11:10:00.042Z,22.60
2017-08-09T11:12:26.120Z,22.50
2017-08-09T11:14:52.236Z,22.50
2017-08-09T11:17:18.294Z,22.50
2017-08-09T11:19:45.115Z,22.70
2017-08-09T11:22:11.175Z,22.70
2017-08-09T11:24:37.984Z,23.00
2017-08-09T11:27:04.059Z,22.90
2017-08-09T11:29:30.127Z,23.00
2017-08-09T11:31:56.202Z,23.10
2017-08-09T11:34:22.274Z,23.50
2017-08-09T11:36:48.430Z,23.70
2017-08-09T11:39:14.494Z,23.70
2017-08-09T11:41:40.563Z,23.80
2017-08-09T11:44:06.631Z,23.80
2017-08-09T11:46:32.691Z,23.70
2017-08-09T11:48:58.774Z,23.80
2017-08-09T11:51:24.814Z,23.70
2017-08-09T11:53:50.874Z,23.70
2017-08-09T11:56:16.967Z,23.60
2017-08-09T11:58:43.026Z,23.50
2017-08-09T12:01:09.113Z,23.40
2017-08-09T12:03:35.162Z,23.40
2017-08-09T12:06:01.231Z,23.40
2017-08-09T12:08:28.032Z,23.30
2017-08-09T12:10:54.123Z,23.30
2017-08-09T12:13:20.179Z,23.40
2017-08-09T12:15:46.263Z,23.70
2017-08-09T12:18:12.317Z,23.90
2017-08-09T12:20:38.382Z,24.00
2017-08-09T12:23:04.437Z,24.00
2017-08-09T12:25:30.514Z,24.10
2017-08-09T12:27:56.582Z,23.90
2017-08-09T12:30:22.662Z,23.90
2017-08-09T12:32:48.717Z,23.90
2017-08-09T12:35:15.534Z,24.60
2017-08-09T12:37:41.585Z,24.60
2017-08-09T12:40:08.402Z,24.00
2017-08-09T12:42:34.531Z,23.90
2017-08-09T12:45:00.604Z,24.00
2017-08-09T12:47:26.642Z,23.90
2017-08-09T12:49:52.700Z,24.00
2017-08-09T12:52:18.766Z,24.50
2017-08-09T12:54:44.835Z,25.10
2017-08-09T12:57:10.926Z,24.90
2017-08-09T12:59:36.994Z,24.70
2017-08-09T13:02:03.043Z,26.00
2017-08-09T13:04:29.875Z,26.40
2017-08-09T13:06:55.964Z,26.30
2017-08-09T13:09:22.018Z,27.10
2017-08-09T13:11:48.190Z,27.70
2017-08-09T13:14:14.238Z,28.60
2017-08-09T13:16:40.309Z,29.40
2017-08-09T13:19:07.103Z,29.40
2017-08-09T13:21:34.048Z,29.30
2017-08-09T13:24:00.102Z,28.20
2017-08-09T13:26:26.166Z,28.60
2017-08-09T13:28:52.228Z,27.90
2017-08-09T13:31:18.522Z,27.10
2017-08-09T13:33:44.579Z,26.90
2017-08-09T13:36:10.659Z,27.10
2017-08-09T13:38:37.442Z,28.40
2017-08-09T13:41:03.510Z,28.40
2017-08-09T13:43:30.310Z,30.70
2017-08-09T13:45:56.398Z,30.60
2017-08-09T13:48:22.451Z,31.80
2017-08-09T13:50:48.563Z,31.50
2017-08-09T13:53:14.610Z,30.30
2017-08-09T13:55:40.682Z,29.90
2017-08-09T13:58:07.475Z,30.20
2017-08-09T14:00:33.555Z,30.10
2017-08-09T14:02:59.647Z,29.80
2017-08-09T14:05:25.719Z,29.00
2017-08-09T14:07:51.778Z,28.80
2017-08-09T14:10:17.842Z,28.80
2017-08-09T14:12:44.646Z,27.70
2017-08-09T14:15:10.711Z,27.70
2017-08-09T14:17:37.503Z,28.10
2017-08-09T14:20:03.566Z,28.10
2017-08-09T14:22:29.614Z,28.70
2017-08-09T14:24:55.901Z,29.20
2017-08-09T14:27:21.951Z,28.60
2017-08-09T14:29:48.810Z,27.30
2017-08-09T14:32:14.887Z,27.20
2017-08-09T14:34:40.958Z,27.50
2017-08-09T14:37:07.739Z,28.60
2017-08-09T14:39:33.814Z,28.60
2017-08-09T14:42:00.602Z,29.60
2017-08-09T14:44:26.666Z,29.60
2017-08-09T14:46:52.714Z,30.00
2017-08-09T14:49:19.542Z,30.80
2017-08-09T14:51:45.594Z,30.80
2017-08-09T14:54:11.675Z,31.30
2017-08-09T14:56:37.747Z,30.30
2017-08-09T14:59:03.795Z,31.10
2017-08-09T15:01:29.866Z,31.70
2017-08-09T15:03:56.653Z,31.60
2017-08-09T15:06:22.714Z,31.60
2017-08-09T15:08:48.942Z,31.10
2017-08-09T15:11:15.019Z,31.40
2017-08-09T15:13:41.083Z,31.60
2017-08-09T15:16:07.141Z,31.50
2017-08-09T15:18:33.931Z,32.40
2017-08-09T15:20:59.994Z,32.30
2017-08-09T15:23:26.853Z,30.90
2017-08-09T15:25:53.652Z,30.60
2017-08-09T15:28:19.695Z,30.50
2017-08-09T15:30:45.763Z,30.70
2017-08-09T15:33:11.814Z,30.60
2017-08-09T15:35:37.882Z,31.50
2017-08-09T15:38:04.670Z,32.10
2017-08-09T15:40:30.734Z,32.10
2017-08-09T15:42:56.790Z,31.70
2017-08-09T15:45:23.596Z,32.00
2017-08-09T15:47:49.719Z,31.60
2017-08-09T15:50:15.818Z,32.00
2017-08-09T15:52:41.865Z,32.40
2017-08-09T15:55:07.939Z,32.50
2017-08-09T15:57:33.995Z,30.50
2017-08-09T16:00:00.048Z,30.60
2017-08-09T16:02:26.127Z,31.00
2017-08-09T16:04:52.170Z,30.80
2017-08-09T16:07:18.248Z,30.10
2017-08-09T16:09:44.298Z,29.30
2017-08-09T16:12:10.375Z,28.40
2017-08-09T16:14:36.433Z,27.90
2017-08-09T16:17:02.498Z,26.90
2017-08-09T16:19:28.554Z,26.80
2017-08-09T16:21:55.359Z,28.20
2017-08-09T16:24:21.410Z,28.10
2017-08-09T16:26:47.486Z,28.40
2017-08-09T16:29:13.538Z,29.30
2017-08-09T16:31:39.603Z,30.30
2017-08-09T16:34:06.394Z,30.60
2017-08-09T16:36:32.466Z,30.50
2017-08-09T16:38:59.250Z,30.40
2017-08-09T16:41:25.317Z,30.40
2017-08-09T16:43:51.386Z,30.60
2017-08-09T16:46:17.450Z,30.70
2017-08-09T16:48:44.278Z,30.80
2017-08-09T16:51:10.342Z,30.80
2017-08-09T16:53:37.130Z,30.80
2017-08-09T16:56:03.191Z,30.70
2017-08-09T16:58:29.255Z,30.60
2017-08-09T17:00:55.329Z,30.90
2017-08-09T17:03:21.396Z,31.00
2017-08-09T17:05:47.463Z,30.70
2017-08-09T17:08:13.519Z,30.30
2017-08-09T17:10:39.598Z,30.10
2017-08-09T17:13:05.673Z,29.60
2017-08-09T17:15:32.505Z,29.90
2017-08-09T17:17:58.554Z,29.80
2017-08-09T17:20:25.359Z,29.90
2017-08-09T17:22:51.422Z,29.80
2017-08-09T17:25:18.227Z,28.60
2017-08-09T17:27:44.302Z,28.60
2017-08-09T17:30:10.423Z,28.60
2017-08-09T17:32:36.491Z,28.30
2017-08-09T17:35:02.538Z,28.00
2017-08-09T17:37:28.607Z,27.80
2017-08-09T17:39:54.655Z,27.70
2017-08-09T17:42:20.731Z,27.60
2017-08-09T17:44:47.524Z,26.50
2017-08-09T17:47:13.624Z,26.50
2017-08-09T17:49:39.680Z,26.40
2017-08-09T17:52:05.746Z,26.30
2017-08-09T17:54:32.534Z,25.70
2017-08-09T17:56:58.631Z,25.70
2017-08-09T17:59:24.684Z,25.50
2017-08-09T18:01:50.734Z,25.10
2017-08-09T18:04:16.819Z,25.00
2017-08-09T18:06:42.866Z,25.00
2017-08-09T18:09:08.959Z,24.90
2017-08-09T18:11:35.118Z,24.50
2017-08-09T18:14:01.182Z,24.50
2017-08-09T18:16:27.237Z,24.40
2017-08-09T18:18:53.303Z,24.10
2017-08-09T18:21:19.385Z,23.90
2017-08-09T18:23:52.534Z,23.60
2017-08-09T18:26:18.587Z,23.50
2017-08-09T18:28:44.655Z,23.30
2017-08-09T18:31:10.711Z,23.00
2017-08-09T18:33:37.522Z,22.70
2017-08-09T18:36:03.589Z,22.70
2017-08-09T18:38:30.404Z,22.30
2017-08-09T18:40:56.447Z,22.30
2017-08-09T18:43:23.266Z,21.90
2017-08-09T18:45:49.323Z,21.90
2017-08-09T18:48:16.134Z,21.60
2017-08-09T18:50:42.201Z,21.50
2017-08-09T18:53:08.294Z,21.40
2017-08-09T18:55:34.339Z,21.20
2017-08-09T18:58:01.146Z,20.90
2017-08-09T19:00:27.193Z,20.90
2017-08-09T19:02:54.518Z,20.20
2017-08-09T19:05:20.566Z,20.20
2017-08-09T19:07:46.627Z,20.30
2017-08-09T19:10:12.694Z,20.20
2017-08-09T19:12:38.762Z,20.10
2017-08-09T19:15:04.811Z,20.10
2017-08-09T19:17:30.854Z,20.10
2017-08-09T19:19:56.915Z,20.10
2017-08-09T19:22:23.722Z,19.90
2017-08-09T19:24:49.790Z,19.90
2017-08-09T19:27:16.599Z,19.60
2017-08-09T19:29:42.703Z,19.60
2017-08-09T19:32:08.751Z,19.50
2017-08-09T19:34:34.814Z,19.40
2017-08-09T19:37:00.866Z,19.30
2017-08-09T19:39:26.940Z,19.20
2017-08-09T19:41:53.003Z,19.10
2017-08-09T19:44:19.058Z,19.00
2017-08-09T19:46:45.103Z,18.90
2017-08-09T19:49:11.274Z,18.80
2017-08-09T19:51:37.334Z,18.80
2017-08-09T19:54:03.417Z,18.70
2017-08-09T19:56:29.464Z,18.60
2017-08-09T19:58:55.546Z,18.50
2017-08-09T20:01:22.437Z,18.30
2017-08-09T20:03:48.538Z,18.30
2017-08-09T20:06:14.590Z,18.30
2017-08-09T20:08:40.654Z,18.20
2017-08-09T20:11:06.731Z,18.20
2017-08-09T20:13:32.842Z,18.10
2017-08-09T20:15:59.146Z,18.00
2017-08-09T20:18:25.194Z,17.90
2017-08-09T20:20:51.266Z,17.80
2017-08-09T20:23:17.334Z,17.80
2017-08-09T20:25:43.403Z,17.80
2017-08-09T20:28:09.632Z,17.60
2017-08-09T20:30:35.793Z,17.30
2017-08-09T20:33:01.854Z,17.30
2017-08-09T20:35:27.914Z,17.30
2017-08-09T20:37:53.967Z,17.30
2017-08-09T20:40:20.780Z,17.30
2017-08-09T20:42:46.837Z,17.30
2017-08-09T20:45:14.008Z,17.20
2017-08-09T20:47:40.059Z,17.20
2017-08-09T20:50:06.131Z,17.20
2017-08-09T20:52:32.936Z,17.00
2017-08-09T20:54:59.006Z,17.00
2017-08-09T20:57:25.815Z,16.90
2017-08-09T20:59:51.902Z,16.90
2017-08-09T21:02:17.951Z,16.90
2017-08-09T21:04:44.028Z,16.90
2017-08-09T21:07:10.823Z,16.70
2017-08-09T21:09:36.922Z,16.70
2017-08-09T21:12:03.048Z,16.70
2017-08-09T21:14:29.118Z,16.70
2017-08-09T21:16:55.177Z,16.70
2017-08-09T21:19:21.427Z,16.60
2017-08-09T21:21:47.486Z,16.30
2017-08-09T21:24:13.563Z,16.20
2017-08-09T21:26:39.627Z,16.20
2017-08-09T21:29:05.723Z,16.20
2017-08-09T21:31:31.787Z,16.00
2017-08-09T21:33:57.868Z,15.90
2017-08-09T21:36:23.951Z,15.80
2017-08-09T21:38:50.038Z,15.90
2017-08-09T21:41:16.081Z,15.70
2017-08-09T21:43:42.149Z,15.70
2017-08-09T21:46:08.231Z,15.70
2017-08-09T21:48:34.307Z,15.60
2017-08-09T21:51:00.380Z,15.30
2017-08-09T21:53:26.442Z,15.20
2017-08-09T21:55:52.522Z,15.20
2017-08-09T21:58:18.578Z,15.20
2017-08-09T22:00:45.401Z,15.30
2017-08-09T22:03:11.463Z,15.30
2017-08-09T22:05:37.532Z,15.30
2017-08-09T22:08:03.640Z,15.20
2017-08-09T22:10:29.766Z,15.20
2017-08-09T22:12:55.831Z,15.10
2017-08-09T22:15:21.883Z,15.10
2017-08-09T22:17:47.965Z,15.10
2017-08-09T22:20:14.032Z,15.10
2017-08-09T22:22:40.115Z,15.00
2017-08-09T22:25:06.190Z,15.00
2017-08-09T22:27:32.263Z,15.00
2017-08-09T22:29:58.326Z,15.00
2017-08-09T22:32:25.163Z,14.90
2017-08-09T22:34:51.231Z,14.90
2017-08-09T22:37:17.318Z,14.80
2017-08-09T22:39:43.390Z,14.70
2017-08-09T22:42:09.463Z,14.60
2017-08-09T22:44:36.275Z,14.40
2017-08-09T22:47:02.353Z,14.40
2017-08-09T22:49:28.414Z,14.40
2017-08-09T22:51:54.491Z,14.40
2017-08-09T22:54:20.556Z,14.40
2017-08-09T22:56:46.695Z,14.30
2017-08-09T22:59:12.777Z,14.20
2017-08-09T23:01:38.896Z,14.10
2017-08-09T23:04:04.972Z,14.10
2017-08-09T23:06:31.039Z,14.10
2017-08-09T23:08:57.135Z,14.10
2017-08-09T23:11:23.235Z,14.00
2017-08-09T23:13:49.314Z,14.00
2017-08-09T23:16:15.379Z,13.80
2017-08-09T23:18:41.472Z,13.80
2017-08-09T23:21:07.551Z,13.80
2017-08-09T23:23:33.799Z,13.70
2017-08-09T23:26:00.619Z,13.40
2017-08-09T23:28:26.693Z,13.30
2017-08-09T23:30:52.762Z,13.40
2017-08-09T23:33:18.849Z,13.40
2017-08-09T23:35:44.918Z,13.50
2017-08-09T23:38:11.005Z,13.50
2017-08-09T23:40:37.116Z,13.30
2017-08-09T23:43:03.247Z,13.30
2017-08-09T23:45:29.315Z,13.20
2017-08-09T23:47:55.394Z,13.20
2017-08-09T23:50:21.474Z,13.20
2017-08-09T23:52:47.558Z,13.20
2017-08-09T23:55:13.626Z,13.20
2017-08-09T23:57:39.719Z,13.20
